Time;durP1;ratioP1;P1;durP2;ratioP2;P2;SDS_P1;SDS_P2;PMS_P1;PMS_P2;Temp;Humidity;BMP_temperature;BMP_pressure;BME280_temperature;BME280_humidity;BME280_pressure;Samples;Min_cycle;Max_cycle;Signal;HPM_P1;HPM_P2
2022/06/26 00:01:39;;;;;;;9.80;5.92;;;;;;;18.43;87.89;99381.56;1770389;81;20970;-72
2022/06/26 00:04:07;;;;;;;6.08;5.35;;;;;;;18.45;88.16;99390.19;1770431;80;21026;-73
2022/06/26 00:06:34;;;;;;;9.20;5.40;;;;;;;18.46;88.38;99386.61;1770382;81;21093;-73
2022/06/26 00:09:00;;;;;;;8.08;4.55;;;;;;;18.47;88.36;99381.70;1770272;81;21963;-73
2022/06/26 00:11:27;;;;;;;6.05;4.55;;;;;;;18.48;88.34;99380.75;1770252;80;21003;-73
2022/06/26 00:13:54;;;;;;;6.25;4.30;;;;;;;18.50;88.29;99388.53;1770248;81;21073;-73
2022/06/26 00:16:21;;;;;;;6.40;5.60;;;;;;;18.50;88.31;99381.48;1770299;81;21479;-73
2022/06/26 00:18:49;;;;;;;10.45;6.83;;;;;;;18.51;88.26;99373.94;1770396;81;20999;-73
2022/06/26 00:21:15;;;;;;;6.62;6.03;;;;;;;18.50;88.10;99383.27;1770401;80;21132;-73
2022/06/26 00:23:42;;;;;;;6.90;6.30;;;;;;;18.50;87.93;99381.48;1770284;81;20971;-73
2022/06/26 00:26:08;;;;;;;8.53;7.22;;;;;;;18.51;87.89;99383.16;1770551;81;20967;-73
2022/06/26 00:28:36;;;;;;;6.25;5.75;;;;;;;18.53;87.66;99385.67;1770393;80;21054;-73
2022/06/26 00:31:03;;;;;;;7.75;7.05;;;;;;;18.51;87.63;99387.11;1770425;81;21419;-73
2022/06/26 00:33:30;;;;;;;7.40;6.70;;;;;;;18.51;87.63;99383.16;1770271;80;21136;-73
2022/06/26 00:35:56;;;;;;;6.70;6.05;;;;;;;18.50;87.69;99388.53;1770281;81;20994;-73
2022/06/26 00:38:23;;;;;;;6.20;5.60;;;;;;;18.49;87.83;99392.13;1770281;81;20991;-73
2022/06/26 00:40:50;;;;;;;5.90;5.35;;;;;;;18.49;87.77;99390.33;1770272;81;20966;-73
2022/06/26 00:43:17;;;;;;;6.90;5.33;;;;;;;18.49;87.67;99394.76;1770317;81;21034;-73
2022/06/26 00:45:44;;;;;;;5.08;4.67;;;;;;;18.46;87.62;99384.45;1770364;81;21078;-72
2022/06/26 00:48:11;;;;;;;4.80;4.30;;;;;;;18.42;87.23;99389.58;1770226;81;20939;-73
2022/06/26 00:50:38;;;;;;;5.42;3.98;;;;;;;18.38;87.08;99396.05;1770392;81;20991;-72
2022/06/26 00:53:05;;;;;;;5.08;4.45;;;;;;;18.32;86.96;99389.91;1770525;80;21601;-73
2022/06/26 00:55:33;;;;;;;9.88;4.35;;;;;;;18.27;86.84;99385.46;1770276;81;20951;-71
2022/06/26 00:58:01;;;;;;;5.58;3.92;;;;;;;18.22;86.92;99385.32;1751111;81;21161;-71
2022/06/26 01:00:27;;;;;;;6.75;4.78;;;;;;;18.16;87.39;99389.75;1770225;81;21038;-72
2022/06/26 01:02:54;;;;;;;8.48;4.50;;;;;;;18.12;87.73;99392.23;1770596;81;21541;-72
2022/06/26 01:05:21;;;;;;;4.53;4.12;;;;;;;18.07;87.47;99384.30;1770274;81;20951;-71
2022/06/26 01:07:47;;;;;;;5.35;4.58;;;;;;;18.00;87.56;99387.85;1770395;80;20994;-72
2022/06/26 01:10:15;;;;;;;6.47;4.05;;;;;;;17.94;87.48;99387.00;1770173;81;21590;-71
2022/06/26 01:12:43;;;;;;;4.92;3.60;;;;;;;17.88;87.41;99390.07;1770260;80;21419;-72
2022/06/26 01:15:10;;;;;;;8.38;3.95;;;;;;;17.82;87.42;99386.56;1770375;80;20943;-72
2022/06/26 01:17:38;;;;;;;5.97;3.50;;;;;;;17.76;87.45;99387.87;1770262;81;21002;-72
2022/06/26 01:20:08;;;;;;;6.03;4.50;;;;;;;17.70;87.49;99395.34;1770287;81;21054;-72
2022/06/26 01:22:35;;;;;;;4.03;3.55;;;;;;;17.65;87.59;99401.41;1770235;81;21518;-72
2022/06/26 01:25:03;;;;;;;3.65;3.35;;;;;;;17.59;87.74;99405.27;1770205;80;20955;-72
2022/06/26 01:27:30;;;;;;;6.40;3.65;;;;;;;17.56;87.89;99412.09;1770406;81;20943;-72
2022/06/26 01:29:58;;;;;;;4.22;3.80;;;;;;;17.52;87.99;99418.04;1770528;81;21054;-72
2022/06/26 01:32:25;;;;;;;3.90;3.17;;;;;;;17.48;88.05;99420.98;1770272;81;21058;-72
2022/06/26 01:34:52;;;;;;;5.97;3.85;;;;;;;17.44;88.11;99427.41;1770473;81;21100;-72
2022/06/26 01:37:19;;;;;;;5.00;3.72;;;;;;;17.39;88.26;99421.62;1770137;81;21057;-72
2022/06/26 01:39:47;;;;;;;5.55;3.52;;;;;;;17.35;88.34;99428.06;1770251;80;21015;-72
2022/06/26 01:42:14;;;;;;;5.15;3.17;;;;;;;17.30;88.58;99424.44;1770295;81;20999;-72
2022/06/26 01:44:41;;;;;;;3.85;3.45;;;;;;;17.28;88.76;99426.80;1770297;81;20963;-72
2022/06/26 01:47:08;;;;;;;4.53;3.55;;;;;;;17.25;88.87;99429.16;1770254;81;22204;-73
2022/06/26 01:49:36;;;;;;;5.03;3.85;;;;;;;17.20;89.02;99429.48;1770334;80;20967;-73
2022/06/26 01:52:04;;;;;;;5.30;3.50;;;;;;;17.19;89.26;99436.15;1751042;81;21467;-73
2022/06/26 01:54:31;;;;;;;7.05;3.83;;;;;;;17.17;89.34;99438.91;1770224;81;21447;-72
2022/06/26 01:56:58;;;;;;;3.58;3.27;;;;;;;17.17;89.48;99445.48;1770532;81;21034;-72
2022/06/26 01:59:25;;;;;;;4.92;4.08;;;;;;;17.17;89.48;99446.80;1770265;81;21624;-73
2022/06/26 02:01:52;;;;;;;4.80;3.58;;;;;;;17.16;89.50;99450.38;1770445;81;21431;-72
2022/06/26 02:04:19;;;;;;;5.22;3.75;;;;;;;17.15;89.39;99445.22;1770205;80;20994;-72
2022/06/26 02:06:46;;;;;;;4.10;3.70;;;;;;;17.11;89.35;99443.74;1770571;81;21042;-72
2022/06/26 02:14:44;;;;;;;6.47;4.12;;;;;;;17.06;89.78;99446.67;1770126;81;21093;-72
2022/06/26 02:17:11;;;;;;;5.58;4.00;;;;;;;17.06;89.98;99459.81;1770512;80;21427;-72
2022/06/26 02:19:38;;;;;;;5.35;3.90;;;;;;;17.08;90.07;99458.40;1770301;80;20995;-72
2022/06/26 02:22:04;;;;;;;6.87;3.87;;;;;;;17.10;90.12;99459.98;1770651;81;21605;-72
2022/06/26 02:24:31;;;;;;;6.40;4.08;;;;;;;17.13;90.62;99451.89;1770229;81;21183;-72
2022/06/26 02:26:58;;;;;;;6.33;4.30;;;;;;;17.20;91.39;99457.08;1770423;81;20979;-72
2022/06/26 02:29:24;;;;;;;7.70;4.12;;;;;;;17.29;91.89;99456.09;1770219;81;21667;-73
2022/06/26 02:31:53;;;;;;;7.87;3.67;;;;;;;17.40;91.93;99461.42;1770585;81;21415;-72
2022/06/26 02:34:19;;;;;;;5.37;3.70;;;;;;;17.49;91.87;99462.11;1770314;81;20994;-73
2022/06/26 02:36:46;;;;;;;4.60;3.47;;;;;;;17.58;91.43;99469.84;1770424;81;21118;-73
2022/06/26 02:39:12;;;;;;;5.47;4.45;;;;;;;17.64;90.74;99468.95;1770145;81;20950;-73
2022/06/26 02:41:39;;;;;;;4.95;3.65;;;;;;;17.70;90.19;99461.11;1770153;81;21002;-73
2022/06/26 02:44:05;;;;;;;5.05;3.77;;;;;;;17.76;89.88;99468.58;1770300;80;21023;-73
2022/06/26 02:46:32;;;;;;;5.83;3.90;;;;;;;17.80;89.46;99468.22;1770220;80;20963;-73
2022/06/26 02:48:59;;;;;;;10.32;3.87;;;;;;;17.87;89.33;99464.22;1770329;80;21435;-73
2022/06/26 02:51:26;;;;;;;9.15;4.25;;;;;;;17.94;89.23;99471.69;1770189;81;20976;-73
2022/06/26 02:53:53;;;;;;;5.83;4.30;;;;;;;18.00;89.10;99472.54;1770371;81;20987;-73
2022/06/26 02:56:21;;;;;;;4.15;3.72;;;;;;;18.06;88.98;99472.95;1770165;80;20971;-73
2022/06/26 02:58:47;;;;;;;5.45;3.87;;;;;;;18.13;88.68;99470.72;1770392;81;21414;-73
2022/06/26 03:01:16;;;;;;;5.67;4.03;;;;;;;18.21;88.33;99475.78;1770466;81;22150;-73
2022/06/26 03:03:42;;;;;;;5.35;4.42;;;;;;;18.28;88.01;99476.66;1770138;81;20959;-73
2022/06/26 03:06:10;;;;;;;5.70;4.10;;;;;;;18.35;87.78;99472.63;1770487;81;21000;-73
2022/06/26 03:08:37;;;;;;;4.03;3.62;;;;;;;18.45;87.25;99472.30;1770197;81;21003;-73
2022/06/26 03:11:03;;;;;;;3.87;3.58;;;;;;;18.56;86.37;99472.38;1770152;81;21113;-73
2022/06/26 03:13:30;;;;;;;5.47;3.80;;;;;;;18.70;85.94;99472.20;1770563;80;21108;-73
2022/06/26 03:15:58;;;;;;;5.10;3.75;;;;;;;18.89;85.35;99478.25;1770145;81;20999;-73
2022/06/26 03:18:25;;;;;;;5.42;3.70;;;;;;;19.10;85.02;99477.09;1770258;81;21050;-73
2022/06/26 03:20:54;;;;;;;5.70;3.70;;;;;;;19.28;84.38;99476.52;1770203;80;21030;-73
2022/06/26 03:24:00;;;;;;;5.47;4.35;;;;;;;19.48;83.74;99479.41;1770190;81;20982;-73
2022/06/26 03:25:49;;;;;;;6.35;3.80;;;;;;;19.64;82.73;99486.52;1767345;81;21142;-73
2022/06/26 03:28:16;;;;;;;6.83;3.90;;;;;;;19.82;82.00;99486.86;1770475;80;21498;-74
2022/06/26 03:30:44;;;;;;;5.65;3.90;;;;;;;20.10;81.25;99482.87;1770188;81;21568;-74
2022/06/26 03:33:11;;;;;;;5.50;3.87;;;;;;;20.61;79.76;99473.35;1770582;80;20960;-74
2022/06/26 03:35:37;;;;;;;5.58;4.05;;;;;;;21.39;76.93;99480.00;1770383;81;21002;-75
2022/06/26 03:38:04;;;;;;;5.33;3.52;;;;;;;22.21;73.10;99478.08;1770255;80;21523;-74
2022/06/26 03:40:31;;;;;;;6.03;3.47;;;;;;;22.98;70.56;99471.47;1770299;80;20947;-75
2022/06/26 03:42:59;;;;;;;5.47;3.72;;;;;;;23.64;67.25;99469.29;1770343;81;21451;-75
2022/06/26 03:45:27;;;;;;;6.15;3.95;;;;;;;24.09;64.60;99456.54;1770350;81;21479;-75
2022/06/26 03:47:53;;;;;;;3.72;3.00;;;;;;;24.46;62.99;99462.59;1770367;81;20966;-73
2022/06/26 03:50:21;;;;;;;5.22;3.65;;;;;;;24.76;61.12;99465.85;1770310;81;21551;-74
2022/06/26 03:52:48;;;;;;;4.97;3.77;;;;;;;25.08;59.63;99460.80;1770335;81;21062;-74
2022/06/26 03:55:15;;;;;;;4.85;3.20;;;;;;;25.21;58.31;99460.37;1770351;81;21006;-74
2022/06/26 03:57:42;;;;;;;3.83;3.37;;;;;;;25.05;57.14;99465.09;1770342;81;20999;-73
2022/06/26 04:00:10;;;;;;;4.60;3.35;;;;;;;24.66;57.44;99469.42;1770597;81;20951;-73
2022/06/26 04:02:39;;;;;;;5.10;3.55;;;;;;;24.28;58.45;99469.73;1766604;80;21100;-73
2022/06/26 04:05:07;;;;;;;3.52;3.17;;;;;;;23.95;59.22;99476.00;1770218;80;21011;-73
2022/06/26 04:07:34;;;;;;;4.40;3.70;;;;;;;23.67;59.96;99471.66;1770670;81;21042;-73
2022/06/26 04:10:03;;;;;;;3.85;3.42;;;;;;;23.45;60.30;99478.62;1768595;80;20971;-73
2022/06/26 04:12:31;;;;;;;3.92;3.50;;;;;;;23.20;60.48;99470.31;1770409;80;21439;-73
2022/06/26 04:14:58;;;;;;;5.30;3.17;;;;;;;22.93;61.05;99468.92;1770383;81;21250;-73
2022/06/26 04:17:24;;;;;;;3.83;3.40;;;;;;;22.68;61.93;99475.12;1770229;80;21097;-73
2022/06/26 04:19:53;;;;;;;3.50;3.20;;;;;;;22.48;62.62;99472.12;1768841;80;20990;-74
2022/06/26 04:22:19;;;;;;;5.95;3.27;;;;;;;22.37;63.25;99476.24;1770737;81;21443;-74
2022/06/26 04:24:46;;;;;;;4.70;3.37;;;;;;;22.32;63.74;99475.33;1770500;81;21058;-73
2022/06/26 04:27:13;;;;;;;4.53;3.47;;;;;;;22.30;63.80;99477.27;1770374;81;21846;-73
2022/06/26 04:29:41;;;;;;;4.60;3.20;;;;;;;22.30;63.87;99476.44;1770233;81;21430;-73
2022/06/26 04:32:08;;;;;;;4.33;3.70;;;;;;;22.23;64.20;99471.32;1750588;81;20994;-74
2022/06/26 04:34:36;;;;;;;3.62;2.98;;;;;;;22.23;64.20;99472.16;1770186;80;20959;-74
2022/06/26 04:37:05;;;;;;;4.97;3.60;;;;;;;22.30;64.33;99470.65;1770274;81;21081;-74
2022/06/26 04:39:31;;;;;;;3.45;2.98;;;;;;;22.45;64.44;99467.58;1770677;81;21107;-74
2022/06/26 04:42:00;;;;;;;5.58;3.47;;;;;;;22.76;63.94;99471.78;1770019;80;20940;-74
2022/06/26 04:44:26;;;;;;;6.20;3.42;;;;;;;23.13;62.97;99475.86;1770538;81;21006;-74
2022/06/26 04:46:55;;;;;;;5.80;3.27;;;;;;;23.34;61.95;99477.84;1770278;81;21054;-74
2022/06/26 04:49:23;;;;;;;3.37;3.08;;;;;;;23.42;61.43;99480.23;1770141;80;20939;-75
2022/06/26 04:51:50;;;;;;;5.55;3.10;;;;;;;23.69;60.75;99472.34;1770330;81;21760;-75
2022/06/26 04:54:25;;;;;;;3.05;2.85;;;;;;;24.26;59.00;99474.35;1770080;80;21014;-75
2022/06/26 04:56:52;;;;;;;3.27;3.00;;;;;;;25.02;57.63;99478.21;1770299;81;21003;-75
2022/06/26 04:59:18;;;;;;;3.08;2.60;;;;;;;25.83;55.18;99477.02;1770351;81;21109;-75
2022/06/26 05:01:45;;;;;;;5.20;2.60;;;;;;;26.52;52.67;99474.08;1770361;81;20982;-76
2022/06/26 05:04:16;;;;;;;4.85;2.80;;;;;;;27.17;51.19;99471.92;1770202;80;21786;-76
2022/06/26 05:06:45;;;;;;;5.37;2.80;;;;;;;27.48;49.95;99472.00;1768063;80;21518;-76
2022/06/26 05:09:16;;;;;;;5.53;2.45;;;;;;;27.77;48.72;99474.45;1770655;81;20999;-76
2022/06/26 05:11:44;;;;;;;3.22;2.92;;;;;;;28.11;48.69;99472.77;1770260;81;21069;-76
2022/06/26 05:14:13;;;;;;;4.85;2.65;;;;;;;28.47;47.21;99472.23;1770432;81;20963;-76
2022/06/26 05:16:51;;;;;;;3.15;2.77;;;;;;;28.63;46.56;99480.14;1769237;80;21185;-76
2022/06/26 05:19:19;;;;;;;8.13;2.60;;;;;;;28.54;45.64;99474.54;1770151;80;21007;-75
2022/06/26 05:21:46;;;;;;;3.45;2.40;;;;;;;28.22;46.16;99485.43;1770555;80;21046;-75
2022/06/26 05:24:13;;;;;;;2.92;2.58;;;;;;;27.82;46.18;99475.74;1770195;80;20956;-75
2022/06/26 05:26:42;;;;;;;4.28;2.65;;;;;;;27.45;46.83;99486.53;1770189;80;20935;-75
2022/06/26 05:29:08;;;;;;;4.45;2.75;;;;;;;27.32;47.41;99483.57;1770397;80;21532;-75
2022/06/26 05:31:35;;;;;;;2.52;2.33;;;;;;;27.50;47.62;99478.02;1770566;81;20987;-76
2022/06/26 05:34:03;;;;;;;3.05;2.75;;;;;;;27.82;46.90;99479.75;1770225;81;20951;-75
2022/06/26 05:36:31;;;;;;;4.15;2.80;;;;;;;28.23;45.85;99485.77;1770203;81;21002;-76
2022/06/26 05:38:58;;;;;;;5.00;2.83;;;;;;;28.52;44.75;99475.72;1770332;80;21097;-77
2022/06/26 05:41:27;;;;;;;4.10;2.60;;;;;;;28.76;43.66;99475.03;1770099;80;21495;-76
2022/06/26 05:43:54;;;;;;;4.42;3.12;;;;;;;28.90;43.39;99469.92;1770224;80;20947;-75
2022/06/26 05:46:21;;;;;;;2.80;2.08;;;;;;;28.89;42.43;99473.61;1770274;80;21479;-75
2022/06/26 05:48:53;;;;;;;3.77;2.35;;;;;;;28.78;42.05;99478.84;1770413;81;21498;-75
2022/06/26 05:51:25;;;;;;;6.10;2.85;;;;;;;28.68;42.44;99483.63;1770359;80;21562;-75
2022/06/26 05:54:03;;;;;;;2.60;2.40;;;;;;;28.69;42.39;99484.78;1686614;85;21144;-75
2022/06/26 05:56:31;;;;;;;2.85;2.62;;;;;;;28.75;42.13;99482.73;1770025;80;20987;-75
2022/06/26 05:59:15;;;;;;;2.90;2.70;;;;;;;28.65;41.66;99483.47;1686760;85;21101;-75
2022/06/26 06:01:43;;;;;;;3.98;2.65;;;;;;;28.46;42.07;99477.26;1751493;80;21419;-74
2022/06/26 06:04:12;;;;;;;4.65;2.55;;;;;;;28.30;41.95;99476.03;1781043;80;20939;-74
2022/06/26 06:06:39;;;;;;;4.87;2.50;;;;;;;28.10;42.38;99471.10;1770338;80;21244;-74
2022/06/26 06:09:07;;;;;;;2.58;2.15;;;;;;;27.88;43.05;99466.53;1770217;80;21026;-76
2022/06/26 06:11:34;;;;;;;3.12;2.42;;;;;;;27.70;43.50;99469.96;1750899;81;20963;-76
2022/06/26 06:14:01;;;;;;;5.37;3.00;;;;;;;27.59;44.10;99466.31;1770215;81;20959;-73
2022/06/26 06:16:27;;;;;;;3.60;2.65;;;;;;;27.49;43.82;99470.50;1770207;81;21131;-74
2022/06/26 06:18:54;;;;;;;4.70;2.70;;;;;;;27.28;44.43;99471.05;1770185;81;21439;-75
2022/06/26 06:21:21;;;;;;;4.08;2.42;;;;;;;27.10;44.53;99465.92;1770177;80;20952;-75
2022/06/26 06:23:48;;;;;;;2.80;2.30;;;;;;;26.95;44.84;99463.61;1770582;80;21514;-73
2022/06/26 06:26:15;;;;;;;3.10;2.35;;;;;;;26.81;45.19;99463.39;1770168;80;21019;-74
2022/06/26 06:28:42;;;;;;;3.62;2.55;;;;;;;26.73;44.91;99465.58;1770208;80;20955;-74
2022/06/26 06:31:09;;;;;;;6.28;2.47;;;;;;;26.72;45.65;99458.58;1770551;81;21735;-74
2022/06/26 06:33:37;;;;;;;2.60;2.40;;;;;;;26.78;46.04;99461.39;1770391;81;21462;-74
2022/06/26 06:36:05;;;;;;;3.72;2.35;;;;;;;26.86;45.68;99472.58;1770226;81;21577;-74
2022/06/26 06:38:32;;;;;;;3.12;2.50;;;;;;;26.90;45.19;99458.41;1770241;81;20955;-74
2022/06/26 06:41:02;;;;;;;3.40;2.52;;;;;;;26.88;45.17;99459.06;1770239;80;20986;-73
2022/06/26 06:43:37;;;;;;;2.87;2.20;;;;;;;26.86;45.40;99465.91;1768793;80;21683;-74
2022/06/26 06:46:22;;;;;;;2.70;2.30;;;;;;;26.90;44.27;99457.07;1770193;81;20963;-74
2022/06/26 06:48:51;;;;;;;2.72;2.22;;;;;;;26.81;44.90;99468.23;1745365;81;21419;-74
2022/06/26 06:51:31;;;;;;;2.47;2.20;;;;;;;26.76;45.10;99455.42;1770178;81;20967;-74
2022/06/26 06:53:58;;;;;;;5.10;2.35;;;;;;;26.70;45.06;99461.91;1770239;80;21141;-74
2022/06/26 06:56:25;;;;;;;2.52;2.30;;;;;;;26.54;45.59;99468.58;1770518;81;21095;-73
2022/06/26 06:58:52;;;;;;;5.58;2.00;;;;;;;26.32;45.91;99462.05;1770092;81;20983;-74
2022/06/26 07:01:18;;;;;;;4.12;2.37;;;;;;;26.14;46.49;99472.81;1770448;80;21470;-74
2022/06/26 07:03:45;;;;;;;3.20;2.35;;;;;;;26.01;46.44;99472.42;1770157;81;21002;-74
2022/06/26 07:06:11;;;;;;;4.40;2.20;;;;;;;25.93;46.75;99475.08;1770428;81;20994;-74
2022/06/26 07:08:38;;;;;;;2.83;2.40;;;;;;;25.90;47.10;99472.23;1770259;80;21742;-74
2022/06/26 07:11:05;;;;;;;3.22;2.35;;;;;;;25.95;47.24;99467.77;1770131;81;21078;-75
2022/06/26 07:13:31;;;;;;;4.85;2.20;;;;;;;25.98;46.45;99478.91;1770175;81;20955;-75
2022/06/26 07:15:58;;;;;;;2.50;2.30;;;;;;;26.01;46.23;99465.27;1770268;81;20995;-75
2022/06/26 07:18:25;;;;;;;3.20;2.40;;;;;;;26.07;46.02;99476.62;1770185;80;21514;-74
2022/06/26 07:20:54;;;;;;;2.30;2.10;;;;;;;26.11;45.08;99462.47;1770418;80;21483;-75
2022/06/26 07:23:20;;;;;;;4.37;2.45;;;;;;;26.12;44.31;99466.81;1770161;81;21022;-75
2022/06/26 07:25:50;;;;;;;3.45;2.35;;;;;;;26.14;44.85;99471.48;1769785;80;21096;-75
2022/06/26 07:28:17;;;;;;;2.80;2.47;;;;;;;26.23;45.25;99470.98;1770496;81;20982;-75
2022/06/26 07:30:44;;;;;;;3.80;2.27;;;;;;;26.27;44.65;99469.17;1770262;81;20955;-75
2022/06/26 07:35:57;;;;;;;3.58;2.30;;;;;;;26.25;44.63;99459.16;1770173;80;20988;-75
2022/06/26 07:38:24;;;;;;;5.78;2.20;;;;;;;26.24;43.98;99461.49;1770066;80;20954;-75
2022/06/26 07:40:52;;;;;;;3.12;2.35;;;;;;;26.24;44.15;99467.32;1770162;81;21018;-74
2022/06/26 07:43:20;;;;;;;2.77;2.20;;;;;;;26.32;42.69;99458.88;1751033;81;20990;-75
2022/06/26 07:45:48;;;;;;;2.92;2.35;;;;;;;26.37;42.93;99474.39;1770106;80;21227;-76
2022/06/26 07:48:15;;;;;;;2.40;2.20;;;;;;;26.42;42.54;99464.88;1770359;81;21061;-75
2022/06/26 07:50:43;;;;;;;2.55;2.35;;;;;;;26.53;42.40;99469.08;1770233;81;20987;-75
2022/06/26 07:53:10;;;;;;;2.85;2.40;;;;;;;26.64;42.37;99468.73;1770568;80;21498;-75
2022/06/26 07:55:37;;;;;;;5.03;2.52;;;;;;;26.72;42.09;99462.08;1770653;80;20974;-74
2022/06/26 07:58:04;;;;;;;6.08;2.20;;;;;;;26.78;42.66;99472.56;1771863;81;21081;-75
2022/06/26 08:00:31;;;;;;;3.33;2.00;;;;;;;26.84;42.16;99481.75;1770249;81;20947;-75
2022/06/26 08:03:09;;;;;;;2.58;2.00;;;;;;;26.89;41.85;99474.91;1770426;81;21057;-74
2022/06/26 08:05:37;;;;;;;4.50;2.05;;;;;;;26.97;41.40;99468.28;1770260;81;21038;-76
2022/06/26 08:08:04;;;;;;;3.70;2.10;;;;;;;27.01;41.74;99467.42;1770165;80;21003;-75
2022/06/26 08:10:31;;;;;;;2.37;2.17;;;;;;;27.05;42.18;99466.92;1770260;81;21164;-76
2022/06/26 08:13:00;;;;;;;3.15;2.00;;;;;;;27.19;41.34;99473.89;1770013;81;21050;-76
2022/06/26 08:15:27;;;;;;;2.22;2.12;;;;;;;27.23;41.39;99476.06;1770258;81;20998;-74
2022/06/26 08:17:54;;;;;;;2.40;2.27;;;;;;;27.28;40.52;99495.59;1770153;80;20956;-76
2022/06/26 08:20:21;;;;;;;2.10;1.90;;;;;;;27.26;40.68;99478.40;1770592;81;20971;-76
2022/06/26 08:22:48;;;;;;;4.42;3.27;;;;;;;27.20;41.13;99477.73;1770265;81;21230;-75
2022/06/26 08:25:14;;;;;;;3.62;2.33;;;;;;;27.21;42.09;99481.23;1770471;81;20963;-76
2022/06/26 08:27:41;;;;;;;4.78;2.20;;;;;;;27.34;41.92;99479.73;1770435;80;20962;-74
2022/06/26 08:30:09;;;;;;;2.52;2.33;;;;;;;27.51;41.36;99486.36;1770625;81;21419;-76
2022/06/26 08:32:37;;;;;;;2.87;2.17;;;;;;;27.61;41.91;99477.16;1770284;81;20998;-76
2022/06/26 08:35:08;;;;;;;4.47;2.35;;;;;;;27.66;40.35;99473.47;1770672;80;21416;-76
2022/06/26 08:37:35;;;;;;;4.80;2.27;;;;;;;27.57;41.31;99479.88;1770374;81;21085;-74
2022/06/26 08:40:01;;;;;;;2.42;2.00;;;;;;;27.42;41.34;99490.37;1770540;81;20939;-74
2022/06/26 08:42:28;;;;;;;4.60;2.40;;;;;;;27.18;41.13;99489.08;1770278;81;21038;-74
2022/06/26 08:44:57;;;;;;;4.85;2.62;;;;;;;26.84;42.10;99486.58;1770621;81;20994;-75
2022/06/26 08:47:25;;;;;;;4.40;2.27;;;;;;;26.55;43.20;99484.42;1770294;81;21143;-76
2022/06/26 08:49:53;;;;;;;3.25;2.10;;;;;;;26.35;44.40;99492.39;1770195;81;20987;-76
2022/06/26 08:52:21;;;;;;;3.30;2.67;;;;;;;26.23;44.36;99497.15;1770059;80;20946;-75
2022/06/26 08:54:49;;;;;;;3.80;2.50;;;;;;;26.07;44.51;99495.77;1770156;81;21013;-75
2022/06/26 08:57:16;;;;;;;7.62;2.55;;;;;;;25.98;45.12;99490.90;1770341;81;21038;-75
2022/06/26 08:59:42;;;;;;;6.37;2.95;;;;;;;25.93;45.37;99495.91;1770580;81;21787;-75
2022/06/26 09:02:09;;;;;;;4.62;2.37;;;;;;;25.90;46.07;99506.04;1770189;81;21026;-75
2022/06/26 09:04:36;;;;;;;4.72;2.70;;;;;;;25.87;47.16;99515.19;1770607;81;21065;-75
2022/06/26 09:07:06;;;;;;;3.67;2.37;;;;;;;25.85;48.50;99517.17;1770204;81;21076;-76
2022/06/26 09:09:39;;;;;;;6.15;2.70;;;;;;;25.89;49.09;99513.20;1770308;80;21543;-77
2022/06/26 09:12:07;;;;;;;4.33;2.87;;;;;;;26.02;50.62;99516.23;1770468;81;21246;-76
2022/06/26 09:14:34;;;;;;;5.78;3.33;;;;;;;26.21;51.37;99522.30;1770202;81;20963;-76
2022/06/26 09:17:01;;;;;;;6.90;6.20;;;;;;;26.44;51.17;99516.73;1770247;80;20959;-76
2022/06/26 09:19:33;;;;;;;3.20;2.85;;;;;;;26.75;50.77;99518.28;1770244;81;21466;-76
2022/06/26 09:22:08;;;;;;;3.00;2.72;;;;;;;27.09;50.19;99514.97;1770258;80;21014;-76
2022/06/26 09:24:37;;;;;;;4.60;2.92;;;;;;;27.37;49.67;99518.13;1770300;81;21955;-76
2022/06/26 09:27:10;;;;;;;4.70;3.37;;;;;;;27.67;48.14;99505.03;1770162;81;20998;-77
2022/06/26 09:29:39;;;;;;;4.33;2.42;;;;;;;27.90;47.54;99505.96;1770241;80;20970;-76
2022/06/26 09:32:13;;;;;;;2.58;2.17;;;;;;;28.10;46.83;99505.86;1770469;80;21086;-75
2022/06/26 09:34:51;;;;;;;2.72;2.25;;;;;;;28.12;46.68;99512.38;1770484;80;21006;-77
2022/06/26 09:37:19;;;;;;;2.30;2.10;;;;;;;27.91;45.83;99508.13;1769699;80;21884;-76
2022/06/26 09:39:46;;;;;;;3.20;2.58;;;;;;;27.70;46.24;99504.70;1770392;81;21066;-76
2022/06/26 09:42:21;;;;;;;5.37;2.33;;;;;;;27.53;44.63;99506.56;1770240;81;20967;-76
2022/06/26 09:44:51;;;;;;;2.22;2.12;;;;;;;27.39;44.63;99505.41;1770519;80;20978;-76
2022/06/26 09:47:28;;;;;;;2.37;2.17;;;;;;;27.29;45.04;99507.44;1750496;81;38200;-76
2022/06/26 09:49:58;;;;;;;2.50;2.30;;;;;;;27.25;44.53;99504.77;1770248;81;21843;-75
2022/06/26 09:52:29;;;;;;;2.62;2.42;;;;;;;27.21;43.73;99509.27;1769402;80;21006;-75
2022/06/26 09:54:57;;;;;;;2.50;2.30;;;;;;;27.10;44.14;99505.13;1770474;81;21478;-75
2022/06/26 09:57:26;;;;;;;2.15;2.00;;;;;;;27.08;44.63;99503.96;1770311;80;21456;-75
2022/06/26 09:59:54;;;;;;;2.45;2.30;;;;;;;27.03;44.87;99503.63;1770405;81;21423;-76
2022/06/26 10:07:59;;;;;;;3.25;2.10;;;;;;;26.94;44.82;99499.31;1770357;80;21002;-75
2022/06/26 10:10:26;;;;;;;4.40;2.30;;;;;;;26.87;45.44;99502.27;1770202;81;21058;-74
2022/06/26 10:13:02;;;;;;;3.47;2.08;;;;;;;26.78;46.37;99517.12;1770227;80;20955;-75
2022/06/26 10:15:34;;;;;;;4.15;2.60;;;;;;;26.65;46.87;99518.43;1770484;80;21868;-75
2022/06/26 10:18:27;;;;;;;4.75;2.20;;;;;;;26.54;46.96;99513.92;1769291;80;21427;-75
2022/06/26 10:20:56;;;;;;;3.40;2.15;;;;;;;26.52;46.70;99514.58;1770672;80;20978;-75
2022/06/26 10:23:34;;;;;;;2.30;1.90;;;;;;;26.43;46.46;99503.89;1770207;80;20967;-76
2022/06/26 10:26:17;;;;;;;2.60;2.00;;;;;;;26.37;44.22;99507.23;1770531;81;20951;-75
2022/06/26 10:29:06;;;;;;;2.20;2.00;;;;;;;26.33;43.12;99501.05;1770586;81;21135;-76
2022/06/26 10:31:49;;;;;;;1.87;1.77;;;;;;;26.27;43.40;99499.83;1770179;81;20943;-75
2022/06/26 10:34:24;;;;;;;4.50;1.85;;;;;;;26.23;43.38;99488.31;1770231;81;21046;-76
2022/06/26 10:37:12;;;;;;;2.20;1.80;;;;;;;26.19;43.92;99497.13;1770239;80;21007;-75
2022/06/26 10:39:45;;;;;;;1.70;1.60;;;;;;;26.13;43.86;99495.14;1770399;80;21486;-75
2022/06/26 10:45:28;;;;;;;2.27;1.85;;;;;;;26.04;43.88;99502.75;1770122;81;20994;-75
2022/06/26 10:47:57;;;;;;;2.05;1.95;;;;;;;26.01;43.70;99501.73;1770266;81;20967;-75
2022/06/26 10:50:39;;;;;;;2.27;1.80;;;;;;;26.07;43.00;99506.44;1770201;81;21006;-76
2022/06/26 10:53:28;;;;;;;2.60;2.08;;;;;;;26.17;43.04;99500.48;1770515;81;21585;-75
2022/06/26 10:55:59;;;;;;;3.52;1.75;;;;;;;26.28;43.49;99492.17;1769829;80;21505;-76
2022/06/26 10:58:37;;;;;;;1.98;1.87;;;;;;;26.39;42.55;99494.55;1770405;81;21034;-75
2022/06/26 11:01:08;;;;;;;2.77;2.12;;;;;;;26.53;42.23;99498.42;1770245;81;20935;-77
2022/06/26 11:03:36;;;;;;;2.58;1.70;;;;;;;26.67;42.56;99495.09;1770487;81;21059;-76
2022/06/26 11:06:17;;;;;;;1.90;1.80;;;;;;;26.88;41.57;99491.92;1770195;81;21001;-76
2022/06/26 11:08:50;;;;;;;1.92;1.80;;;;;;;27.12;41.42;99500.45;1770541;81;21822;-76
2022/06/26 11:11:25;;;;;;;3.08;1.70;;;;;;;27.28;40.92;99488.41;1770161;81;21475;-76
2022/06/26 11:13:59;;;;;;;1.80;1.70;;;;;;;27.39;40.67;99484.53;1769913;80;20974;-76
2022/06/26 11:16:34;;;;;;;2.65;1.90;;;;;;;27.36;40.65;99487.07;1770216;80;20981;-75
2022/06/26 11:19:06;;;;;;;1.85;1.75;;;;;;;27.30;40.70;99489.08;1770295;81;20990;-76
2022/06/26 11:21:33;;;;;;;1.82;1.72;;;;;;;27.26;41.05;99485.58;1770782;81;21759;-76
2022/06/26 11:24:01;;;;;;;2.12;1.90;;;;;;;27.23;41.10;99479.23;1770141;81;21007;-76
2022/06/26 11:26:28;;;;;;;2.05;1.67;;;;;;;27.26;40.71;99480.23;1770174;81;21003;-76
2022/06/26 11:29:00;;;;;;;2.00;1.85;;;;;;;27.32;40.90;99480.40;1770208;81;21585;-76
2022/06/26 11:31:30;;;;;;;2.10;2.00;;;;;;;27.37;41.17;99476.72;1770184;81;20987;-75
2022/06/26 11:34:09;;;;;;;4.85;1.98;;;;;;;27.47;40.27;99477.02;1770234;81;21117;-77
2022/06/26 11:36:36;;;;;;;4.95;2.08;;;;;;;27.49;40.47;99480.35;1768846;80;21535;-76
2022/06/26 11:39:03;;;;;;;5.17;2.15;;;;;;;27.54;40.54;99474.83;1770296;80;20971;-77
2022/06/26 11:41:30;;;;;;;2.77;1.80;;;;;;;27.68;40.54;99470.13;1770412;80;21026;-75
2022/06/26 11:43:57;;;;;;;2.33;1.82;;;;;;;27.82;39.86;99469.90;1770322;81;21521;-75
2022/06/26 11:46:23;;;;;;;2.85;1.82;;;;;;;27.89;39.51;99470.05;1770213;81;21188;-75
2022/06/26 11:48:52;;;;;;;3.80;2.05;;;;;;;27.87;39.57;99472.89;1770085;81;20947;-76
2022/06/26 11:51:20;;;;;;;2.12;1.92;;;;;;;27.76;39.71;99467.44;1770209;81;21006;-76
2022/06/26 11:53:50;;;;;;;1.98;1.87;;;;;;;27.60;39.77;99471.48;1770600;81;20998;-75
2022/06/26 11:56:27;;;;;;;4.12;2.17;;;;;;;27.34;40.46;99474.39;1770395;80;21431;-76
2022/06/26 11:58:55;;;;;;;6.37;2.45;;;;;;;27.12;42.14;99480.94;1769982;80;21407;-76